createdAt,value
2017-10-06T00:00:04.941Z,987.91
2017-10-06T00:01:04.900Z,987.83
2017-10-06T00:02:03.616Z,987.81
2017-10-06T00:03:03.644Z,987.82
2017-10-06T00:04:03.681Z,987.80
2017-10-06T00:05:03.797Z,987.87
2017-10-06T00:06:03.738Z,987.75
2017-10-06T00:07:03.676Z,987.83
2017-10-06T00:08:03.702Z,987.79
2017-10-06T00:09:08.462Z,987.81
2017-10-06T00:10:03.559Z,987.81
2017-10-06T00:11:05.123Z,987.91
2017-10-06T00:12:04.944Z,987.79
2017-10-06T00:13:04.776Z,987.86
2017-10-06T00:14:04.597Z,987.81
2017-10-06T00:15:04.425Z,987.82
2017-10-06T00:16:03.542Z,987.82
2017-10-06T00:17:04.574Z,987.88
2017-10-06T00:18:03.693Z,987.92
2017-10-06T00:19:03.535Z,987.92
2017-10-06T00:20:03.667Z,987.92
2017-10-06T00:21:03.618Z,987.94
2017-10-06T00:22:03.665Z,987.91
2017-10-06T00:23:06.023Z,987.97
2017-10-06T00:24:03.667Z,987.94
2017-10-06T00:25:03.705Z,988.03
2017-10-06T00:26:03.638Z,987.94
2017-10-06T00:27:05.467Z,988.00
2017-10-06T00:28:04.496Z,988.09
2017-10-06T00:29:04.633Z,988.03
2017-10-06T00:30:04.654Z,988.06
2017-10-06T00:31:04.509Z,988.01
2017-10-06T00:32:04.937Z,988.11
2017-10-06T00:33:03.666Z,988.03
2017-10-06T00:34:03.589Z,988.06
2017-10-06T00:35:03.714Z,988.10
2017-10-06T00:36:03.737Z,988.08
2017-10-06T00:37:03.763Z,988.07
2017-10-06T00:38:03.807Z,988.14
2017-10-06T00:39:03.936Z,988.04
2017-10-06T00:40:03.682Z,988.11
2017-10-06T00:41:03.823Z,988.10
2017-10-06T00:42:03.827Z,988.15
2017-10-06T00:43:03.653Z,988.11
2017-10-06T00:44:04.682Z,988.07
2017-10-06T00:45:04.648Z,988.12
2017-10-06T00:46:04.669Z,988.09
2017-10-06T00:47:05.006Z,988.13
2017-10-06T00:48:03.320Z,988.05
2017-10-06T00:49:03.366Z,988.07
2017-10-06T00:50:04.508Z,988.09
2017-10-06T00:51:04.545Z,988.12
2017-10-06T00:52:04.579Z,988.00
2017-10-06T00:53:04.505Z,988.02
2017-10-06T00:54:04.531Z,987.94
2017-10-06T00:55:04.566Z,987.95
2017-10-06T00:56:04.606Z,987.90
2017-10-06T00:57:03.969Z,987.99
2017-10-06T00:58:03.997Z,987.91
2017-10-06T00:59:03.936Z,987.96
2017-10-06T01:00:04.074Z,987.99
2017-10-06T01:02:35.882Z,987.97
2017-10-06T01:02:36.692Z,987.94
2017-10-06T01:03:03.354Z,987.96
2017-10-06T01:05:53.973Z,988.04
2017-10-06T01:05:54.786Z,987.94
2017-10-06T01:08:30.971Z,987.96
2017-10-06T01:08:31.789Z,987.95
2017-10-06T01:08:32.601Z,988.04
2017-10-06T01:09:03.370Z,987.98
2017-10-06T01:11:45.600Z,987.93
2017-10-06T01:11:46.414Z,987.96
2017-10-06T01:17:22.577Z,987.93
2017-10-06T01:17:23.722Z,988.06
2017-10-06T01:17:24.637Z,987.90
2017-10-06T01:17:25.445Z,987.90
2017-10-06T01:17:26.259Z,987.89
2017-10-06T01:17:27.070Z,987.88
2017-10-06T01:21:07.002Z,987.89
2017-10-06T01:21:07.815Z,987.81
2017-10-06T01:21:08.832Z,987.85
2017-10-06T01:21:09.441Z,987.90
2017-10-06T01:23:49.944Z,987.84
2017-10-06T01:23:50.753Z,987.88
2017-10-06T01:27:07.437Z,987.84
2017-10-06T01:27:08.247Z,987.76
2017-10-06T01:27:08.854Z,987.81
2017-10-06T01:27:09.667Z,987.88
2017-10-06T01:29:52.598Z,987.91
2017-10-06T01:29:53.416Z,987.86
2017-10-06T01:32:30.817Z,987.76
2017-10-06T01:32:31.630Z,987.81
2017-10-06T01:32:32.446Z,987.72
2017-10-06T01:33:03.510Z,987.77
2017-10-06T01:38:03.990Z,987.77
2017-10-06T01:38:04.796Z,987.75
2017-10-06T01:38:05.717Z,987.72
2017-10-06T01:38:06.530Z,987.71
2017-10-06T01:38:07.342Z,987.81
2017-10-06T01:38:08.162Z,987.69
2017-10-06T01:39:04.075Z,987.68
2017-10-06T01:45:07.584Z,987.68
2017-10-06T01:45:08.396Z,987.71
2017-10-06T01:45:09.211Z,987.63
2017-10-06T01:45:10.026Z,987.71
2017-10-06T01:45:10.838Z,987.67
2017-10-06T01:45:11.648Z,987.65
2017-10-06T01:45:12.379Z,987.59
2017-10-06T01:47:57.939Z,987.61
2017-10-06T01:47:58.751Z,987.61
2017-10-06T01:51:08.049Z,987.60
2017-10-06T01:51:08.870Z,987.62
2017-10-06T01:51:09.470Z,987.61
2017-10-06T01:51:10.278Z,987.62
2017-10-06T01:53:45.988Z,987.61
2017-10-06T01:53:46.596Z,987.57
2017-10-06T01:56:32.031Z,987.60
2017-10-06T01:56:32.838Z,987.60
2017-10-06T01:56:33.655Z,987.55
2017-10-06T01:57:03.519Z,987.59
2017-10-06T01:59:51.550Z,987.59
2017-10-06T01:59:52.261Z,987.60
2017-10-06T02:00:03.602Z,987.53
2017-10-06T02:01:04.740Z,987.53
2017-10-06T02:02:04.770Z,987.58
2017-10-06T02:03:04.795Z,987.61
2017-10-06T02:04:04.239Z,987.59
2017-10-06T02:05:04.197Z,987.58
2017-10-06T02:06:04.241Z,987.59
2017-10-06T02:07:03.583Z,987.55
2017-10-06T02:08:03.641Z,987.60
2017-10-06T02:09:03.712Z,987.58
2017-10-06T02:10:03.642Z,987.57
2017-10-06T02:11:03.588Z,987.60
2017-10-06T02:12:03.640Z,987.52
2017-10-06T02:13:04.265Z,987.56
2017-10-06T02:14:04.793Z,987.51
2017-10-06T02:15:04.829Z,987.47
2017-10-06T02:16:04.856Z,987.45
2017-10-06T02:17:04.935Z,987.51
2017-10-06T02:18:04.864Z,987.54
2017-10-06T02:19:04.085Z,987.44
2017-10-06T02:20:04.211Z,987.47
2017-10-06T02:21:04.152Z,987.56
2017-10-06T02:22:03.574Z,987.51
2017-10-06T02:23:03.509Z,987.51
2017-10-06T02:24:03.640Z,987.44
2017-10-06T02:25:03.673Z,987.50
2017-10-06T02:26:03.680Z,987.42
2017-10-06T02:27:03.705Z,987.42
2017-10-06T02:28:03.732Z,987.33
2017-10-06T02:29:03.666Z,987.30
2017-10-06T02:30:04.345Z,987.30
2017-10-06T02:31:04.891Z,987.40
2017-10-06T02:32:04.978Z,987.31
2017-10-06T02:33:05.022Z,987.35
2017-10-06T02:34:04.949Z,987.30
2017-10-06T02:35:04.904Z,987.38
2017-10-06T02:36:04.942Z,987.41
2017-10-06T02:37:04.279Z,987.28
2017-10-06T02:38:04.327Z,987.29
2017-10-06T02:39:04.385Z,987.33
2017-10-06T02:40:04.331Z,987.21
2017-10-06T02:41:03.698Z,987.37
2017-10-06T02:42:03.723Z,987.38
2017-10-06T02:43:03.748Z,987.36
2017-10-06T02:44:03.702Z,987.30
2017-10-06T02:45:03.745Z,987.32
2017-10-06T02:46:03.687Z,987.32
2017-10-06T02:47:04.931Z,987.38
2017-10-06T02:48:04.967Z,987.31
2017-10-06T02:49:05.004Z,987.33
2017-10-06T02:50:04.934Z,987.27
2017-10-06T02:51:04.968Z,987.28
2017-10-06T02:52:04.998Z,987.25
2017-10-06T02:53:04.338Z,987.23
2017-10-06T02:54:04.668Z,987.23
2017-10-06T02:55:03.604Z,987.18
2017-10-06T02:56:04.374Z,987.31
2017-10-06T02:57:04.411Z,987.25
2017-10-06T02:58:03.736Z,987.18
2017-10-06T02:59:03.773Z,987.17
2017-10-06T03:00:03.716Z,987.15
2017-10-06T03:01:03.768Z,987.16
2017-10-06T03:02:03.790Z,987.11
2017-10-06T03:03:04.956Z,987.17
2017-10-06T03:04:05.098Z,987.11
2017-10-06T03:05:05.035Z,987.08
2017-10-06T03:06:04.967Z,987.12
2017-10-06T03:07:05.003Z,987.15
2017-10-06T03:08:05.035Z,987.06
2017-10-06T03:09:05.070Z,987.14
2017-10-06T03:10:04.402Z,987.11
2017-10-06T03:11:04.445Z,987.15
2017-10-06T03:12:04.493Z,987.16
2017-10-06T03:13:04.435Z,987.09
2017-10-06T03:14:03.769Z,987.06
2017-10-06T03:15:03.843Z,987.09
2017-10-06T03:16:03.779Z,987.10
2017-10-06T03:17:03.844Z,987.09
2017-10-06T03:18:03.871Z,987.15
2017-10-06T03:19:03.788Z,987.10
2017-10-06T03:20:05.031Z,987.15
2017-10-06T03:21:05.066Z,987.17
2017-10-06T03:22:05.130Z,987.13
2017-10-06T03:23:05.074Z,987.11
2017-10-06T03:24:04.903Z,987.20
2017-10-06T03:25:05.076Z,987.04
2017-10-06T03:26:05.112Z,987.08
2017-10-06T03:27:05.143Z,987.14
2017-10-06T03:28:04.475Z,987.12
2017-10-06T03:29:04.505Z,987.09
2017-10-06T03:30:03.873Z,987.10
2017-10-06T03:31:03.829Z,987.11
2017-10-06T03:32:03.845Z,987.21
2017-10-06T03:33:03.874Z,987.15
2017-10-06T03:34:03.915Z,987.20
2017-10-06T03:35:03.862Z,987.23
2017-10-06T03:36:04.502Z,987.15
2017-10-06T03:37:05.150Z,987.20
2017-10-06T03:38:05.091Z,987.27
2017-10-06T03:39:05.140Z,987.23
2017-10-06T03:40:05.093Z,987.32
2017-10-06T03:41:05.137Z,987.30
2017-10-06T03:42:04.679Z,987.26
2017-10-06T03:43:04.512Z,987.23
2017-10-06T03:44:04.572Z,987.30
2017-10-06T03:45:04.505Z,987.29
2017-10-06T03:46:04.540Z,987.34
2017-10-06T03:47:03.966Z,987.33
2017-10-06T03:48:03.929Z,987.38
2017-10-06T03:49:50.686Z,987.38
2017-10-06T03:51:28.526Z,987.30
2017-10-06T03:51:29.340Z,987.42
2017-10-06T03:51:30.152Z,987.36
2017-10-06T03:52:03.925Z,987.37
2017-10-06T03:53:05.159Z,987.39
2017-10-06T03:54:04.787Z,987.36
2017-10-06T03:55:05.129Z,987.47
2017-10-06T03:56:05.165Z,987.39
2017-10-06T03:57:05.143Z,987.41
2017-10-06T03:58:05.121Z,987.39
2017-10-06T03:59:04.579Z,987.36
2017-10-06T04:00:05.232Z,987.40
2017-10-06T04:01:04.559Z,987.35
2017-10-06T04:02:04.596Z,987.35
2017-10-06T04:03:04.634Z,987.45
2017-10-06T04:04:03.963Z,987.44
2017-10-06T04:05:04.002Z,987.35
2017-10-06T04:06:03.944Z,987.40
2017-10-06T04:07:03.994Z,987.42
2017-10-06T04:08:04.025Z,987.34
2017-10-06T04:09:04.058Z,987.40
2017-10-06T04:10:05.200Z,987.45
2017-10-06T04:11:05.241Z,987.37
2017-10-06T04:12:05.681Z,987.37
2017-10-06T04:13:04.927Z,987.25
2017-10-06T04:14:05.199Z,987.29
2017-10-06T04:15:05.305Z,987.32
2017-10-06T04:16:05.277Z,987.33
2017-10-06T04:17:04.606Z,987.36
2017-10-06T04:18:04.653Z,987.38
2017-10-06T04:19:03.978Z,987.38
2017-10-06T04:20:04.020Z,987.33
2017-10-06T04:21:04.078Z,987.37
2017-10-06T04:22:04.016Z,987.43
2017-10-06T04:23:04.065Z,987.51
2017-10-06T04:24:04.102Z,987.46
2017-10-06T04:25:05.658Z,987.38
2017-10-06T04:26:04.044Z,987.38
2017-10-06T04:27:05.274Z,987.39
2017-10-06T04:28:05.314Z,987.42
2017-10-06T04:29:05.257Z,987.46
2017-10-06T04:30:05.319Z,987.40
2017-10-06T04:31:05.258Z,987.48
2017-10-06T04:32:05.389Z,987.48
2017-10-06T04:33:04.652Z,987.53
2017-10-06T04:34:04.702Z,987.49
2017-10-06T04:35:04.660Z,987.46
2017-10-06T04:36:04.078Z,987.48
2017-10-06T04:37:04.132Z,987.42
2017-10-06T04:38:04.076Z,987.49
2017-10-06T04:39:04.209Z,987.54
2017-10-06T04:40:04.046Z,987.49
2017-10-06T04:41:04.693Z,987.56
2017-10-06T04:42:04.723Z,987.55
2017-10-06T04:43:05.299Z,987.59
2017-10-06T04:44:05.331Z,987.56
2017-10-06T04:45:05.392Z,987.53
2017-10-06T04:46:05.323Z,987.55
2017-10-06T04:47:05.369Z,987.52
2017-10-06T04:48:05.300Z,987.55
2017-10-06T04:49:05.343Z,987.54
2017-10-06T04:50:04.779Z,987.56
2017-10-06T04:51:05.535Z,987.55
2017-10-06T04:52:04.776Z,987.58
2017-10-06T04:53:04.107Z,987.62
2017-10-06T04:54:04.182Z,987.63
2017-10-06T04:55:04.116Z,987.60
2017-10-06T04:56:04.182Z,987.54
2017-10-06T04:57:04.129Z,987.63
2017-10-06T04:58:04.170Z,987.62
2017-10-06T04:59:05.347Z,987.71
2017-10-06T05:00:05.360Z,987.70
2017-10-06T05:01:04.923Z,987.69
2017-10-06T05:02:05.376Z,987.64
2017-10-06T05:03:05.375Z,987.61
2017-10-06T05:04:05.363Z,987.69
2017-10-06T05:05:05.431Z,987.69
2017-10-06T05:06:05.385Z,987.63
2017-10-06T05:07:04.823Z,987.73
2017-10-06T05:08:04.759Z,987.63
2017-10-06T05:09:04.790Z,987.70
2017-10-06T05:10:04.148Z,987.73
2017-10-06T05:11:04.198Z,987.72
2017-10-06T05:12:04.263Z,987.66
2017-10-06T05:13:04.202Z,987.66
2017-10-06T05:14:04.143Z,987.66
2017-10-06T05:15:05.089Z,987.63
2017-10-06T05:16:04.823Z,987.65
2017-10-06T05:17:04.867Z,987.66
2017-10-06T05:18:05.423Z,987.72
2017-10-06T05:19:05.477Z,987.58
2017-10-06T05:20:05.426Z,987.63
2017-10-06T05:21:05.459Z,987.63
2017-10-06T05:22:05.496Z,987.59
2017-10-06T05:23:05.457Z,987.66
2017-10-06T05:24:05.492Z,987.59
2017-10-06T05:25:04.819Z,987.55
2017-10-06T05:26:04.859Z,987.62
2017-10-06T05:27:04.913Z,987.52
2017-10-06T05:28:04.256Z,987.64
2017-10-06T05:29:04.197Z,987.62
2017-10-06T05:30:04.293Z,987.58
2017-10-06T05:31:04.228Z,987.55
2017-10-06T05:32:04.261Z,987.55
2017-10-06T05:33:04.296Z,987.63
2017-10-06T05:34:05.440Z,987.59
2017-10-06T05:35:05.527Z,987.55
2017-10-06T05:36:05.461Z,987.54
2017-10-06T05:37:05.529Z,987.61
2017-10-06T05:38:05.614Z,987.55
2017-10-06T05:39:05.556Z,987.69
2017-10-06T05:40:05.510Z,987.62
2017-10-06T05:41:05.547Z,987.62
2017-10-06T05:42:04.977Z,987.58
2017-10-06T05:43:04.915Z,987.62
2017-10-06T05:44:04.955Z,987.67
2017-10-06T05:45:04.984Z,987.70
2017-10-06T05:46:04.330Z,987.74
2017-10-06T05:47:04.368Z,987.81
2017-10-06T05:48:04.342Z,987.78
2017-10-06T05:49:04.367Z,987.81
2017-10-06T05:50:04.301Z,987.78
2017-10-06T05:51:05.557Z,987.78
2017-10-06T05:52:05.546Z,987.80
2017-10-06T05:53:05.593Z,987.82
2017-10-06T05:54:05.589Z,987.83
2017-10-06T05:55:05.539Z,987.78
2017-10-06T05:56:05.624Z,987.77
2017-10-06T05:57:05.578Z,987.83
2017-10-06T05:58:04.964Z,987.74
2017-10-06T05:59:04.923Z,987.69
2017-10-06T06:00:04.310Z,987.82
2017-10-06T06:01:04.997Z,987.81
2017-10-06T06:02:04.327Z,987.78
2017-10-06T06:03:04.485Z,987.85
2017-10-06T06:04:04.352Z,987.89
2017-10-06T06:05:04.383Z,987.78
2017-10-06T06:06:04.423Z,987.92
2017-10-06T06:07:04.476Z,987.90
2017-10-06T06:08:04.386Z,987.86
2017-10-06T06:09:05.601Z,987.85
2017-10-06T06:10:05.721Z,987.85
2017-10-06T06:11:05.677Z,987.83
2017-10-06T06:12:05.695Z,987.79
2017-10-06T06:13:05.616Z,987.80
2017-10-06T06:14:05.642Z,987.80
2017-10-06T06:15:05.662Z,987.78
2017-10-06T06:16:05.089Z,987.74
2017-10-06T06:17:05.005Z,987.77
2017-10-06T06:18:04.415Z,987.76
2017-10-06T06:19:04.447Z,987.79
2017-10-06T06:20:04.370Z,987.78
2017-10-06T06:21:04.392Z,987.81
2017-10-06T06:22:04.412Z,987.91
2017-10-06T06:23:04.427Z,987.87
2017-10-06T06:24:04.435Z,987.89
2017-10-06T06:25:05.078Z,987.89
2017-10-06T06:26:05.614Z,987.91
2017-10-06T06:27:05.645Z,987.89
2017-10-06T06:28:05.687Z,987.92
2017-10-06T06:29:05.716Z,987.89
2017-10-06T07:25:22.205Z,988.11
2017-10-06T07:26:04.172Z,988.14
2017-10-06T07:27:05.411Z,988.14
2017-10-06T07:28:06.189Z,988.19
2017-10-06T07:29:06.276Z,988.13
2017-10-06T07:30:06.187Z,988.07
2017-10-06T07:31:06.512Z,988.08
2017-10-06T07:32:06.238Z,988.07
2017-10-06T07:33:06.348Z,988.03
2017-10-06T07:34:05.052Z,988.00
2017-10-06T07:35:04.987Z,988.04
2017-10-06T07:36:05.093Z,988.05
2017-10-06T07:37:05.004Z,988.02
2017-10-06T07:38:05.011Z,988.06
2017-10-06T07:39:05.024Z,988.04
2017-10-06T07:40:05.044Z,987.89
2017-10-06T07:41:05.169Z,987.98
2017-10-06T07:42:05.090Z,987.98
2017-10-06T07:43:06.212Z,987.91
2017-10-06T07:44:06.030Z,987.97
2017-10-06T07:45:06.355Z,987.96
2017-10-06T07:46:06.371Z,987.82
2017-10-06T07:47:06.288Z,987.93
2017-10-06T07:48:06.320Z,987.95
2017-10-06T07:49:06.244Z,988.02
2017-10-06T07:50:05.055Z,988.04
2017-10-06T07:51:06.374Z,988.09
2017-10-06T07:52:05.077Z,987.96
2017-10-06T07:53:05.125Z,987.96
2017-10-06T07:54:05.138Z,988.03
2017-10-06T07:55:05.149Z,988.03
2017-10-06T07:56:05.164Z,988.03
2017-10-06T07:57:05.084Z,988.00
2017-10-06T07:58:05.108Z,988.04
2017-10-06T07:59:05.138Z,988.13
2017-10-06T08:00:06.330Z,988.05
2017-10-06T08:01:06.353Z,988.07
2017-10-06T08:02:06.381Z,988.11
2017-10-06T08:03:06.215Z,988.07
2017-10-06T08:04:06.495Z,988.15
2017-10-06T08:05:06.307Z,988.08
2017-10-06T08:06:06.365Z,988.11
2017-10-06T08:07:05.124Z,988.11
2017-10-06T08:08:05.149Z,988.16
2017-10-06T08:09:05.168Z,988.14
2017-10-06T08:10:05.192Z,988.20
2017-10-06T08:11:05.209Z,988.19
2017-10-06T08:12:05.126Z,988.30
2017-10-06T08:13:05.160Z,988.15
2017-10-06T08:14:05.204Z,988.17
2017-10-06T08:15:05.223Z,988.19
2017-10-06T08:16:05.319Z,988.19
2017-10-06T08:17:05.161Z,988.28
2017-10-06T08:18:07.188Z,988.21
2017-10-06T08:19:06.408Z,988.23
2017-10-06T08:20:06.481Z,988.23
2017-10-06T08:21:06.397Z,988.24
2017-10-06T08:22:06.420Z,988.26
2017-10-06T08:23:06.439Z,988.25
2017-10-06T08:24:06.471Z,988.16
2017-10-06T08:25:05.181Z,988.17
2017-10-06T08:26:05.203Z,988.27
2017-10-06T08:27:05.161Z,988.20
2017-10-06T08:28:05.193Z,988.16
2017-10-06T08:29:05.212Z,988.12
2017-10-06T08:30:05.230Z,988.10
2017-10-06T08:31:05.261Z,988.13
2017-10-06T08:32:05.290Z,988.14
2017-10-06T08:33:05.214Z,988.11
2017-10-06T08:34:06.529Z,988.12
2017-10-06T08:35:06.553Z,988.19
2017-10-06T08:36:06.483Z,988.16
2017-10-06T08:37:06.408Z,988.18
2017-10-06T08:38:06.437Z,988.13
2017-10-06T08:39:06.554Z,988.22
2017-10-06T08:40:06.470Z,988.22
2017-10-06T08:41:06.483Z,988.16
2017-10-06T08:42:06.520Z,988.22
2017-10-06T08:43:05.332Z,988.31
2017-10-06T08:44:05.368Z,988.24
2017-10-06T08:45:05.285Z,988.28
2017-10-06T08:46:05.303Z,988.32
2017-10-06T08:47:05.314Z,988.26
2017-10-06T08:48:05.225Z,988.32
2017-10-06T08:49:05.340Z,988.26
2017-10-06T08:50:05.260Z,988.26
2017-10-06T08:51:05.287Z,988.36
2017-10-06T08:52:06.408Z,988.41
2017-10-06T08:53:06.544Z,988.32
2017-10-06T08:54:06.572Z,988.34
2017-10-06T08:55:06.498Z,988.24
2017-10-06T08:56:06.539Z,988.44
2017-10-06T08:57:06.475Z,988.36
2017-10-06T08:58:06.613Z,988.35
2017-10-06T08:59:06.533Z,988.35
2017-10-06T09:00:06.600Z,988.31
2017-10-06T09:01:05.314Z,988.21
2017-10-06T09:02:05.360Z,988.30
2017-10-06T09:03:05.386Z,988.32
2017-10-06T09:04:05.329Z,988.39
2017-10-06T09:05:05.358Z,988.26
2017-10-06T09:06:05.287Z,988.20
2017-10-06T09:07:05.302Z,988.33
2017-10-06T09:08:05.434Z,988.33
2017-10-06T09:09:05.352Z,988.36
2017-10-06T09:10:06.579Z,988.34
2017-10-06T09:11:06.609Z,988.42
2017-10-06T09:12:06.433Z,988.39
2017-10-06T09:13:06.601Z,988.35
2017-10-06T09:14:06.523Z,988.46
2017-10-06T09:15:06.555Z,988.36
2017-10-06T09:16:06.511Z,988.37
2017-10-06T09:17:05.317Z,988.41
2017-10-06T09:18:06.667Z,988.47
2017-10-06T09:19:11.510Z,988.59
2017-10-06T09:20:05.407Z,988.50
2017-10-06T09:21:06.631Z,988.49
2017-10-06T09:22:06.633Z,988.35
2017-10-06T09:23:06.572Z,988.41
2017-10-06T09:24:06.610Z,988.47
2017-10-06T09:25:06.643Z,988.49
2017-10-06T09:26:06.658Z,988.51
2017-10-06T09:27:06.611Z,988.42
2017-10-06T09:28:06.636Z,988.48
2017-10-06T09:29:06.564Z,988.57
2017-10-06T09:30:06.595Z,988.46
2017-10-06T09:31:06.717Z,988.50
2017-10-06T09:32:06.636Z,988.43
2017-10-06T09:33:06.584Z,988.43
2017-10-06T09:34:05.394Z,988.40
2017-10-06T09:35:05.426Z,988.40
2017-10-06T09:36:05.554Z,988.56
2017-10-06T09:37:05.402Z,988.46
2017-10-06T09:38:05.351Z,988.49
2017-10-06T09:39:05.496Z,988.48
2017-10-06T09:40:05.489Z,988.63
2017-10-06T09:41:05.551Z,988.71
2017-10-06T09:42:05.440Z,988.61
2017-10-06T09:43:06.655Z,988.61
2017-10-06T09:44:06.683Z,988.66
2017-10-06T09:45:06.741Z,988.64
2017-10-06T09:46:06.713Z,988.67
2017-10-06T09:47:06.736Z,988.63
2017-10-06T09:48:06.752Z,988.59
2017-10-06T09:49:06.732Z,988.54
2017-10-06T09:50:05.496Z,988.67
2017-10-06T09:51:05.355Z,988.70
2017-10-06T09:52:05.528Z,988.52
2017-10-06T09:53:05.480Z,988.70
2017-10-06T09:54:05.562Z,988.66
2017-10-06T09:55:05.518Z,988.62
2017-10-06T09:56:05.512Z,988.72
2017-10-06T09:57:07.397Z,988.70
2017-10-06T09:58:05.450Z,988.75
2017-10-06T09:59:06.831Z,988.65
2017-10-06T10:00:06.849Z,988.73
2017-10-06T10:01:06.707Z,988.69
2017-10-06T10:02:06.759Z,988.59
2017-10-06T10:03:06.732Z,988.58
2017-10-06T10:04:06.734Z,988.63
2017-10-06T10:05:06.885Z,988.78
2017-10-06T10:06:06.774Z,988.71
2017-10-06T10:07:06.825Z,988.77
2017-10-06T10:08:05.595Z,988.70
2017-10-06T10:09:05.508Z,988.70
2017-10-06T10:10:05.667Z,988.71
2017-10-06T10:11:05.552Z,988.63
2017-10-06T10:12:05.555Z,988.76
2017-10-06T10:13:05.531Z,988.71
2017-10-06T10:14:05.513Z,988.69
2017-10-06T10:15:06.882Z,988.75
2017-10-06T10:16:06.758Z,988.78
2017-10-06T10:17:06.814Z,988.79
2017-10-06T10:18:06.814Z,988.77
2017-10-06T10:19:06.672Z,988.88
2017-10-06T10:20:06.896Z,988.92
2017-10-06T10:21:06.860Z,988.84
2017-10-06T10:22:06.832Z,988.78
2017-10-06T10:23:05.588Z,988.83
2017-10-06T10:24:06.878Z,988.76
2017-10-06T10:25:05.557Z,988.80
2017-10-06T10:26:05.603Z,988.74
2017-10-06T10:27:05.614Z,988.76
2017-10-06T10:28:05.622Z,988.81
2017-10-06T10:29:05.623Z,988.78
2017-10-06T10:30:05.609Z,988.80
2017-10-06T10:31:05.568Z,988.73
2017-10-06T10:32:06.808Z,988.70
2017-10-06T10:33:06.880Z,988.73
2017-10-06T10:34:06.902Z,988.83
2017-10-06T10:35:06.892Z,988.79
2017-10-06T10:36:06.802Z,988.82
2017-10-06T10:37:06.894Z,988.76
2017-10-06T10:38:06.867Z,988.80
2017-10-06T10:39:06.816Z,988.83
2017-10-06T10:40:05.619Z,988.87
2017-10-06T10:41:05.604Z,988.77
2017-10-06T10:42:05.632Z,988.74
2017-10-06T10:43:05.669Z,988.73
2017-10-06T10:44:05.718Z,988.71
2017-10-06T10:45:05.686Z,988.77
2017-10-06T10:46:05.688Z,988.89
2017-10-06T10:47:05.509Z,988.78
2017-10-06T10:48:05.711Z,988.73
2017-10-06T10:49:05.816Z,988.87
2017-10-06T10:50:05.658Z,988.78
2017-10-06T10:51:06.874Z,988.79
2017-10-06T10:52:06.850Z,988.79
2017-10-06T10:53:06.891Z,988.79
2017-10-06T10:54:06.949Z,988.82
2017-10-06T10:55:06.880Z,988.84
2017-10-06T10:56:07.015Z,988.80
2017-10-06T10:57:05.671Z,988.83
2017-10-06T10:58:06.977Z,988.69
2017-10-06T10:59:05.736Z,988.72
2017-10-06T11:00:05.709Z,988.70
2017-10-06T11:01:05.715Z,988.72
2017-10-06T11:02:05.742Z,988.72
2017-10-06T11:03:05.808Z,988.78
2017-10-06T11:04:05.747Z,988.78
2017-10-06T11:05:05.753Z,988.88
2017-10-06T11:06:05.736Z,988.87
2017-10-06T11:07:05.702Z,988.82
2017-10-06T11:08:06.997Z,988.76
2017-10-06T11:09:06.894Z,988.85
2017-10-06T11:10:06.938Z,988.92
2017-10-06T11:11:06.923Z,988.90
2017-10-06T11:12:06.983Z,988.92
2017-10-06T11:13:07.047Z,988.83
2017-10-06T11:14:06.961Z,988.89
2017-10-06T11:15:05.711Z,989.01
2017-10-06T11:16:05.813Z,988.92
2017-10-06T11:17:05.735Z,988.90
2017-10-06T11:18:05.881Z,988.91
2017-10-06T11:19:05.805Z,988.97
2017-10-06T11:20:05.820Z,988.97
2017-10-06T11:21:05.981Z,988.96
2017-10-06T11:22:05.776Z,988.93
2017-10-06T11:23:05.840Z,988.88
2017-10-06T11:24:05.831Z,988.96
2017-10-06T11:25:06.994Z,988.93
2017-10-06T11:26:06.960Z,988.86
2017-10-06T11:27:06.995Z,988.94
2017-10-06T11:28:07.035Z,989.04
2017-10-06T11:29:06.949Z,988.87
2017-10-06T11:30:06.981Z,988.97
2017-10-06T11:31:07.024Z,988.88
2017-10-06T11:32:05.851Z,989.02
2017-10-06T11:33:05.902Z,988.96
2017-10-06T11:34:05.686Z,988.87
2017-10-06T11:35:05.802Z,988.91
2017-10-06T11:36:05.823Z,988.92
2017-10-06T11:37:05.934Z,988.97
2017-10-06T11:38:05.915Z,989.00
2017-10-06T11:39:05.823Z,989.04
2017-10-06T11:40:05.908Z,988.91
2017-10-06T11:41:05.823Z,989.02
2017-10-06T11:42:07.017Z,988.98
2017-10-06T11:43:06.972Z,989.01
2017-10-06T11:44:07.090Z,988.96
2017-10-06T11:45:07.146Z,989.02
2017-10-06T11:46:07.055Z,988.98
2017-10-06T11:47:07.090Z,989.08
2017-10-06T11:48:07.151Z,988.92
2017-10-06T11:49:05.873Z,988.95
2017-10-06T11:50:05.904Z,988.87
2017-10-06T11:51:05.897Z,988.92
2017-10-06T11:52:05.897Z,988.95
2017-10-06T11:53:05.930Z,988.93
2017-10-06T11:54:05.882Z,989.02
2017-10-06T11:55:05.990Z,989.05
2017-10-06T11:56:05.866Z,988.92
2017-10-06T11:57:06.040Z,988.96
2017-10-06T11:58:05.898Z,988.89
2017-10-06T11:59:07.088Z,988.97
2017-10-06T12:00:07.071Z,988.97
2017-10-06T12:01:07.166Z,988.97
2017-10-06T12:02:07.208Z,988.92
2017-10-06T12:03:07.164Z,989.01
2017-10-06T12:04:07.100Z,988.98
2017-10-06T12:05:07.166Z,988.96
2017-10-06T12:06:05.944Z,989.06
2017-10-06T12:07:06.041Z,988.92
2017-10-06T12:08:05.947Z,989.00
2017-10-06T12:09:05.917Z,989.02
2017-10-06T12:10:05.935Z,989.00
2017-10-06T12:11:05.961Z,988.99
2017-10-06T12:12:05.988Z,988.94
2017-10-06T12:13:05.987Z,989.04
2017-10-06T12:14:06.055Z,989.06
2017-10-06T12:15:05.993Z,989.02
2017-10-06T12:16:07.100Z,989.10
2017-10-06T12:17:07.176Z,988.99
2017-10-06T12:18:07.316Z,989.04
2017-10-06T12:19:07.225Z,989.06
2017-10-06T12:20:07.193Z,989.07
2017-10-06T12:21:07.229Z,989.04
2017-10-06T12:22:05.952Z,989.03
2017-10-06T12:23:06.018Z,989.00
2017-10-06T12:24:06.008Z,989.03
2017-10-06T12:25:06.017Z,989.09
2017-10-06T12:26:06.034Z,989.08
2017-10-06T12:27:06.040Z,989.06
2017-10-06T12:28:06.044Z,989.16
2017-10-06T12:29:06.059Z,989.12
2017-10-06T12:30:05.959Z,989.17
2017-10-06T12:31:07.248Z,989.22
2017-10-06T12:32:07.288Z,989.10
2017-10-06T12:33:07.325Z,989.14
2017-10-06T12:34:07.259Z,989.14
2017-10-06T12:35:07.289Z,989.07
2017-10-06T12:36:07.269Z,989.12
2017-10-06T12:37:07.152Z,989.23
2017-10-06T12:38:07.328Z,989.16
2017-10-06T12:39:06.023Z,989.04
2017-10-06T12:40:06.069Z,989.06
2017-10-06T12:41:06.062Z,989.05
2017-10-06T12:42:05.984Z,989.10
2017-10-06T12:43:06.130Z,989.19
2017-10-06T12:44:06.091Z,989.09
2017-10-06T12:45:06.086Z,989.06
2017-10-06T12:46:06.114Z,989.07
2017-10-06T12:47:06.038Z,989.13
2017-10-06T12:48:06.123Z,989.10
2017-10-06T12:49:06.103Z,989.04
2017-10-06T12:50:07.463Z,989.15
2017-10-06T12:51:07.300Z,989.16
2017-10-06T12:52:07.349Z,989.12
2017-10-06T12:53:07.360Z,989.18
2017-10-06T12:54:07.319Z,989.10
2017-10-06T12:55:07.385Z,989.29
2017-10-06T12:56:07.344Z,989.11
2017-10-06T12:57:06.084Z,989.13
2017-10-06T12:58:06.106Z,989.12
2017-10-06T12:59:06.087Z,989.18
2017-10-06T13:00:06.236Z,989.09
2017-10-06T13:01:06.231Z,989.14
2017-10-06T13:02:06.113Z,989.11
2017-10-06T13:03:06.160Z,989.13
2017-10-06T13:04:06.115Z,989.20
2017-10-06T13:05:06.204Z,989.10
2017-10-06T13:06:06.158Z,989.20
2017-10-06T13:07:07.359Z,989.13
2017-10-06T13:08:07.393Z,989.25
2017-10-06T13:09:07.351Z,989.23
2017-10-06T13:10:07.387Z,989.13
2017-10-06T13:11:07.405Z,989.19
2017-10-06T13:12:07.397Z,989.15
2017-10-06T13:13:07.393Z,989.15
2017-10-06T13:14:06.172Z,989.21
2017-10-06T13:15:06.243Z,989.12
2017-10-06T13:16:06.161Z,989.15
2017-10-06T13:17:06.174Z,989.21
2017-10-06T13:18:06.187Z,989.24
2017-10-06T17:27:06.917Z,991.44
2017-10-06T17:27:07.617Z,991.32